createdAt,value
2018-08-17T00:00:56.675Z,4.63
2018-08-17T00:03:25.424Z,4.93
2018-08-17T00:05:53.942Z,4.77
2018-08-17T00:08:22.440Z,4.60
2018-08-17T00:10:51.010Z,4.50
2018-08-17T00:13:19.475Z,4.57
2018-08-17T00:15:48.286Z,4.43
2018-08-17T00:18:17.062Z,4.43
2018-08-17T00:20:45.642Z,4.47
2018-08-17T00:23:14.106Z,4.77
2018-08-17T00:25:42.829Z,4.67
2018-08-17T00:28:11.266Z,5.13
2018-08-17T00:30:40.137Z,4.83
2018-08-17T00:33:08.586Z,4.87
2018-08-17T00:35:37.069Z,5.43
2018-08-17T00:38:05.735Z,5.00
2018-08-17T00:40:34.175Z,4.83
2018-08-17T00:43:02.802Z,4.93
2018-08-17T00:45:31.220Z,5.33
2018-08-17T00:48:00.198Z,5.87
2018-08-17T00:50:29.161Z,6.20
2018-08-17T00:52:58.060Z,5.80
2018-08-17T00:55:26.513Z,5.67
2018-08-17T00:57:55.102Z,5.33
2018-08-17T01:00:23.575Z,5.50
2018-08-17T01:02:52.108Z,5.83
2018-08-17T01:05:21.455Z,5.67
2018-08-17T01:07:50.045Z,5.60
2018-08-17T01:10:18.500Z,5.57
2018-08-17T01:12:47.079Z,5.50
2018-08-17T01:15:17.321Z,5.60
2018-08-17T01:17:45.947Z,5.50
2018-08-17T01:20:14.386Z,5.60
2018-08-17T01:22:43.170Z,5.63
2018-08-17T01:25:11.610Z,6.63
2018-08-17T01:27:40.310Z,6.60
2018-08-17T01:30:09.643Z,5.50
2018-08-17T01:32:38.782Z,5.83
2018-08-17T01:35:07.873Z,6.47
2018-08-17T01:37:36.612Z,6.47
2018-08-17T01:40:05.419Z,6.10
2018-08-17T01:42:34.158Z,5.97
2018-08-17T01:45:02.668Z,5.97
2018-08-17T01:47:31.338Z,6.40
2018-08-17T01:49:59.935Z,5.93
2018-08-17T01:52:28.360Z,6.60
2018-08-17T01:54:57.011Z,5.80
2018-08-17T01:57:25.603Z,6.10
2018-08-17T01:59:54.268Z,5.90
2018-08-17T02:02:22.732Z,5.77
2018-08-17T02:04:51.235Z,5.43
2018-08-17T02:07:19.685Z,5.50
2018-08-17T02:09:48.175Z,6.03
2018-08-17T02:12:16.592Z,6.00
2018-08-17T02:14:45.353Z,5.60
2018-08-17T02:17:14.124Z,6.17
2018-08-17T02:19:42.651Z,6.23
2018-08-17T02:22:11.207Z,6.70
2018-08-17T02:24:39.685Z,6.33
2018-08-17T02:27:08.416Z,7.13
2018-08-17T02:29:37.583Z,6.95
2018-08-17T02:32:06.488Z,6.40
2018-08-17T02:34:35.474Z,7.07
2018-08-17T02:37:04.336Z,6.33
2018-08-17T02:39:33.446Z,6.10
2018-08-17T02:42:02.106Z,6.27
2018-08-17T02:44:30.667Z,5.97
2018-08-17T02:46:59.197Z,6.00
2018-08-17T02:49:27.676Z,6.03
2018-08-17T02:51:56.538Z,6.30
2018-08-17T02:54:25.175Z,6.03
2018-08-17T02:56:53.582Z,5.73
2018-08-17T02:59:22.455Z,5.90
2018-08-17T03:01:51.169Z,5.77
2018-08-17T03:04:19.788Z,5.87
2018-08-17T03:06:48.353Z,6.57
2018-08-17T03:09:16.880Z,6.03
2018-08-17T03:11:45.417Z,5.87
2018-08-17T03:14:14.012Z,6.07
2018-08-17T03:16:42.439Z,5.50
2018-08-17T03:19:10.863Z,6.27
2018-08-17T03:21:39.440Z,6.70
2018-08-17T03:24:07.927Z,5.43
2018-08-17T03:26:36.604Z,5.77
2018-08-17T03:29:05.289Z,5.63
2018-08-17T03:31:34.141Z,5.15
2018-08-17T03:34:02.830Z,5.23
2018-08-17T03:36:31.413Z,5.23
2018-08-17T03:38:59.840Z,5.70
2018-08-17T03:41:28.429Z,6.00
2018-08-17T03:43:57.183Z,5.60
2018-08-17T03:46:25.642Z,5.93
2018-08-17T03:48:54.326Z,5.47
2018-08-17T03:51:22.894Z,5.43
2018-08-17T03:53:51.528Z,5.63
2018-08-17T03:56:20.218Z,5.50
2018-08-17T03:58:48.634Z,5.43
2018-08-17T04:01:17.306Z,5.63
2018-08-17T04:03:45.863Z,5.17
2018-08-17T04:06:14.441Z,6.13
2018-08-17T04:08:43.053Z,5.47
2018-08-17T04:11:11.513Z,7.33
2018-08-17T04:13:40.585Z,7.90
2018-08-17T04:16:09.362Z,5.83
2018-08-17T04:18:37.851Z,6.03
2018-08-17T04:21:06.359Z,6.00
2018-08-17T04:23:34.767Z,5.63
2018-08-17T04:26:03.363Z,5.80
2018-08-17T04:28:31.823Z,6.00
2018-08-17T04:31:00.400Z,6.07
2018-08-17T04:33:28.856Z,5.93
2018-08-17T04:35:57.434Z,6.17
2018-08-17T04:38:25.920Z,6.13
2018-08-17T04:40:54.383Z,6.77
2018-08-17T04:43:22.875Z,6.47
2018-08-17T04:45:51.346Z,6.30
2018-08-17T04:48:19.863Z,6.13
2018-08-17T04:50:48.495Z,6.10
2018-08-17T04:53:17.067Z,6.63
2018-08-17T04:55:45.542Z,6.50
2018-08-17T04:58:13.954Z,6.10
2018-08-17T05:00:42.491Z,5.67
2018-08-17T05:03:10.972Z,5.97
2018-08-17T05:05:39.414Z,5.60
2018-08-17T05:08:07.836Z,5.97
2018-08-17T05:10:36.560Z,4.93
2018-08-17T05:13:05.199Z,5.10
2018-08-17T05:15:33.609Z,5.70
2018-08-17T05:18:02.079Z,5.70
2018-08-17T05:20:30.516Z,5.27
2018-08-17T05:22:58.981Z,5.30
2018-08-17T05:25:27.627Z,6.10
2018-08-17T05:27:56.095Z,5.53
2018-08-17T05:30:24.713Z,5.80
2018-08-17T05:32:53.503Z,5.97
2018-08-17T05:35:22.890Z,6.30
2018-08-17T05:37:51.455Z,6.80
2018-08-17T05:40:19.894Z,6.80
2018-08-17T05:42:48.534Z,6.83
2018-08-17T05:45:16.966Z,7.53
2018-08-17T05:47:45.532Z,6.77
2018-08-17T05:50:13.950Z,6.43
2018-08-17T05:52:42.578Z,8.00
2018-08-17T05:55:11.570Z,6.60
2018-08-17T05:57:39.999Z,6.83
2018-08-17T06:00:10.147Z,6.43
2018-08-17T06:02:38.878Z,6.90
2018-08-17T06:05:08.312Z,6.37
2018-08-17T06:07:37.190Z,6.20
2018-08-17T06:10:07.326Z,6.40
2018-08-17T06:12:35.782Z,6.57
2018-08-17T06:15:05.551Z,6.53
2018-08-17T06:17:34.035Z,7.12
2018-08-17T06:20:02.487Z,6.60
2018-08-17T06:22:30.960Z,6.23
2018-08-17T06:24:59.427Z,6.20
2018-08-17T06:27:28.166Z,6.73
2018-08-17T06:29:56.567Z,6.13
2018-08-17T06:32:25.002Z,6.10
2018-08-17T06:34:53.542Z,5.63
2018-08-17T06:37:22.864Z,5.83
2018-08-17T06:39:51.517Z,4.70
2018-08-17T06:42:19.967Z,5.73
2018-08-17T06:44:48.755Z,5.50
2018-08-17T06:47:17.453Z,4.87
2018-08-17T06:49:46.017Z,5.47
2018-08-17T06:52:14.623Z,4.93
2018-08-17T06:54:43.075Z,4.93
2018-08-17T06:57:11.526Z,5.67
2018-08-17T06:59:40.104Z,4.83
2018-08-17T07:02:08.606Z,4.67
2018-08-17T07:04:37.088Z,4.73
2018-08-17T07:07:05.641Z,4.37
2018-08-17T07:09:34.159Z,4.03
2018-08-17T07:12:02.784Z,4.27
2018-08-17T07:14:31.223Z,4.17
2018-08-17T07:16:59.662Z,3.90
2018-08-17T07:19:28.601Z,3.87
2018-08-17T07:21:57.046Z,4.20
2018-08-17T07:24:25.866Z,4.50
2018-08-17T07:26:54.521Z,4.87
2018-08-17T07:29:23.032Z,5.00
2018-08-17T07:31:51.614Z,5.57
2018-08-17T07:34:20.070Z,4.70
2018-08-17T07:36:48.652Z,5.03
2018-08-17T07:39:17.086Z,4.90
2018-08-17T07:41:45.768Z,4.87
2018-08-17T07:44:14.566Z,4.77
2018-08-17T07:46:43.244Z,4.77
2018-08-17T07:49:11.759Z,4.47
2018-08-17T07:51:40.184Z,4.17
2018-08-17T07:54:08.847Z,3.80
2018-08-17T07:56:37.889Z,4.62
2018-08-17T07:59:06.388Z,3.63
2018-08-17T08:01:35.221Z,3.98
2018-08-17T08:04:04.147Z,3.87
2018-08-17T08:06:33.096Z,3.58
2018-08-17T08:09:01.894Z,4.80
2018-08-17T08:11:30.713Z,3.70
2018-08-17T08:13:59.200Z,4.27
2018-08-17T08:16:27.914Z,3.90
2018-08-17T08:18:56.620Z,3.50
2018-08-17T08:21:25.119Z,3.73
2018-08-17T08:23:53.820Z,4.33
2018-08-17T08:26:22.952Z,3.77
2018-08-17T08:28:51.650Z,3.70
2018-08-17T08:31:20.408Z,4.40
2018-08-17T08:33:49.102Z,3.77
2018-08-17T08:36:17.850Z,4.10
2018-08-17T08:38:46.895Z,3.58
2018-08-17T08:41:15.877Z,3.40
2018-08-17T08:43:44.391Z,3.60
2018-08-17T08:46:13.115Z,3.23
2018-08-17T08:48:41.879Z,3.60
2018-08-17T08:51:10.953Z,3.42
2018-08-17T08:53:39.610Z,3.33
2018-08-17T08:56:08.534Z,3.50
2018-08-17T08:58:37.076Z,3.00
2018-08-17T09:01:06.358Z,2.70
2018-08-17T09:03:35.612Z,2.90
2018-08-17T09:06:04.298Z,3.37
2018-08-17T09:08:33.058Z,2.70
2018-08-17T09:11:01.831Z,2.60
2018-08-17T09:13:30.808Z,3.02
2018-08-17T09:15:59.989Z,2.80
2018-08-17T09:18:28.708Z,3.02
2018-08-17T09:20:57.403Z,2.90
2018-08-17T09:23:26.162Z,2.77
2018-08-17T09:25:54.897Z,3.33
2018-08-17T09:28:23.346Z,2.90
2018-08-17T09:30:52.086Z,3.23
2018-08-17T09:33:21.026Z,2.90
2018-08-17T09:35:49.756Z,2.50
2018-08-17T09:38:18.658Z,2.97
2018-08-17T09:40:47.443Z,2.50
2018-08-17T09:43:16.202Z,2.97
2018-08-17T09:45:45.059Z,3.17
2018-08-17T09:48:13.953Z,3.27
2018-08-17T09:50:43.561Z,2.52
2018-08-17T09:53:13.144Z,3.00
2018-08-17T09:55:42.790Z,2.80
2018-08-17T09:58:12.538Z,2.80
2018-08-17T10:00:47.195Z,3.20
2018-08-17T10:03:21.338Z,2.93
2018-08-17T10:05:55.608Z,2.47
2018-08-17T10:08:30.111Z,2.73
2018-08-17T10:10:59.248Z,2.57
2018-08-17T10:13:29.261Z,3.03
2018-08-17T10:15:58.323Z,2.67
2018-08-17T10:18:36.194Z,2.50
2018-08-17T10:21:05.182Z,2.43
2018-08-17T10:23:34.016Z,2.63
2018-08-17T10:26:03.038Z,2.92
2018-08-17T10:28:31.572Z,3.07
2018-08-17T10:31:00.709Z,2.57
2018-08-17T10:33:31.089Z,2.67
2018-08-17T10:36:01.062Z,2.60
2018-08-17T10:38:29.500Z,2.70
2018-08-17T10:40:59.375Z,2.37
2018-08-17T10:43:29.916Z,2.60
2018-08-17T10:46:00.114Z,2.40
2018-08-17T10:48:30.426Z,2.60
2018-08-17T10:51:00.318Z,2.50
2018-08-17T10:53:36.341Z,2.30
2018-08-17T10:56:05.435Z,2.17
2018-08-17T10:58:34.165Z,2.17
2018-08-17T11:01:03.168Z,1.87
2018-08-17T11:03:31.677Z,2.00
2018-08-17T11:06:00.450Z,2.40
2018-08-17T11:08:29.206Z,1.97
2018-08-17T11:10:58.006Z,1.90
2018-08-17T11:13:27.095Z,2.30
2018-08-17T11:15:55.966Z,1.97
2018-08-17T11:18:24.664Z,2.10
2018-08-17T11:20:54.034Z,2.07
2018-08-17T11:23:23.308Z,5.55
2018-08-17T11:25:52.140Z,2.60
2018-08-17T11:28:21.191Z,2.40
2018-08-17T11:30:49.949Z,3.00
2018-08-17T11:33:24.125Z,2.17
2018-08-17T11:35:53.600Z,2.15
2018-08-17T11:38:23.262Z,2.50
2018-08-17T11:40:51.954Z,1.90
2018-08-17T11:43:20.700Z,2.70
2018-08-17T11:45:49.426Z,2.37
2018-08-17T11:48:27.206Z,2.37
2018-08-17T11:50:56.531Z,2.00
2018-08-17T11:53:25.338Z,2.20
2018-08-17T11:55:54.199Z,1.90
2018-08-17T11:58:23.334Z,2.50
2018-08-17T12:00:52.122Z,2.00
2018-08-17T12:03:21.177Z,2.12
2018-08-17T12:05:50.183Z,1.90
2018-08-17T12:08:19.340Z,2.00
2018-08-17T12:10:52.460Z,1.77
2018-08-17T12:13:21.229Z,1.90
2018-08-17T12:15:56.436Z,1.73
2018-08-17T12:18:25.635Z,2.73
2018-08-17T12:20:54.654Z,2.17
2018-08-17T12:23:23.843Z,1.87
2018-08-17T12:25:56.482Z,1.70
2018-08-17T12:28:26.719Z,2.17
2018-08-17T12:30:55.578Z,2.67
2018-08-17T12:33:24.251Z,1.97
2018-08-17T12:35:53.246Z,1.90
2018-08-17T12:38:23.192Z,1.82
2018-08-17T12:40:53.487Z,17.67
2018-08-17T12:43:28.215Z,23.83
2018-08-17T12:45:57.259Z,1.80
2018-08-17T12:48:26.321Z,6.35
2018-08-17T12:50:59.255Z,12.00
2018-08-17T12:53:27.768Z,2.10
2018-08-17T12:55:56.438Z,1.80
2018-08-17T12:58:25.110Z,2.60
2018-08-17T13:00:54.109Z,3.77
2018-08-17T13:03:23.347Z,4.20
2018-08-17T13:05:52.123Z,2.80
2018-08-17T13:08:20.874Z,4.07
2018-08-17T13:10:49.574Z,4.80
2018-08-17T13:13:18.528Z,1.83
2018-08-17T13:15:56.455Z,1.90
2018-08-17T13:18:25.195Z,1.70
2018-08-17T13:20:54.194Z,1.92
2018-08-17T13:23:23.487Z,3.33
2018-08-17T13:25:52.676Z,5.00
2018-08-17T13:28:21.412Z,2.20
2018-08-17T13:30:50.138Z,2.30
2018-08-17T13:33:18.957Z,1.93
2018-08-17T13:35:47.705Z,2.30
2018-08-17T13:38:16.384Z,1.93
2018-08-17T13:40:45.088Z,2.10
2018-08-17T13:43:13.862Z,2.10
2018-08-17T13:45:42.577Z,2.60
2018-08-17T13:48:11.303Z,1.93
2018-08-17T13:50:39.962Z,1.60
2018-08-17T13:53:08.621Z,2.10
2018-08-17T13:55:37.288Z,1.72
2018-08-17T13:58:06.323Z,2.20
2018-08-17T14:00:35.307Z,2.58
2018-08-17T14:03:04.403Z,2.60
2018-08-17T14:05:33.131Z,1.80
2018-08-17T14:08:01.839Z,2.00
2018-08-17T14:10:30.507Z,1.87
2018-08-17T14:12:59.296Z,1.77
2018-08-17T14:15:27.805Z,2.70
2018-08-17T14:17:56.570Z,1.80
2018-08-17T14:20:25.353Z,2.20
2018-08-17T14:22:54.310Z,2.50
2018-08-17T14:25:23.486Z,1.90
2018-08-17T14:27:52.220Z,2.17
2018-08-17T14:30:20.946Z,1.90
2018-08-17T14:32:49.660Z,2.30
2018-08-17T14:35:18.379Z,1.93
2018-08-17T14:37:47.342Z,2.27
2018-08-17T14:40:16.466Z,2.08
2018-08-17T14:42:45.332Z,2.03
2018-08-17T14:45:14.338Z,1.95
2018-08-17T14:47:43.413Z,2.00
2018-08-17T14:50:13.559Z,2.40
2018-08-17T14:52:42.665Z,2.27
2018-08-17T14:55:12.120Z,2.00
2018-08-17T14:57:40.855Z,1.90
2018-08-17T15:00:11.664Z,1.93
2018-08-17T15:02:40.396Z,2.00
2018-08-17T15:05:11.103Z,1.92
2018-08-17T15:07:39.735Z,2.33
2018-08-17T15:10:10.256Z,2.00
2018-08-17T15:12:39.034Z,2.20
2018-08-17T15:15:08.882Z,2.10
2018-08-17T15:17:37.877Z,2.10
2018-08-17T15:20:07.622Z,1.90
2018-08-17T15:22:36.336Z,2.30
2018-08-17T15:25:05.342Z,1.70
2018-08-17T15:27:33.856Z,1.97
2018-08-17T15:30:02.574Z,2.03
2018-08-17T15:32:31.246Z,2.08
2018-08-17T15:34:59.946Z,2.00
2018-08-17T15:37:28.618Z,2.03
2018-08-17T15:39:57.611Z,2.10
2018-08-17T15:42:26.305Z,2.13
2018-08-17T15:44:55.131Z,2.10
2018-08-17T15:47:23.993Z,1.70
2018-08-17T15:50:06.908Z,1.93
2018-08-17T15:52:35.627Z,1.75
2018-08-17T15:55:04.515Z,2.10
2018-08-17T15:57:33.621Z,1.80
2018-08-17T16:00:02.440Z,1.97
2018-08-17T16:02:31.170Z,1.70
2018-08-17T16:04:59.881Z,1.80
2018-08-17T16:07:28.595Z,1.53
2018-08-17T16:09:57.578Z,1.92
2018-08-17T16:12:26.047Z,2.10
2018-08-17T16:14:54.738Z,2.20
2018-08-17T16:17:23.961Z,2.43
2018-08-17T16:19:52.646Z,1.80
2018-08-17T16:22:21.542Z,1.93
2018-08-17T16:24:50.630Z,1.80
2018-08-17T16:27:19.428Z,1.90
2018-08-17T16:29:48.187Z,2.10
2018-08-17T16:32:16.867Z,1.73
2018-08-17T16:34:45.588Z,2.20
2018-08-17T16:37:14.576Z,1.95
2018-08-17T16:39:49.934Z,1.92
2018-08-17T16:42:23.985Z,2.10
2018-08-17T16:47:14.862Z,2.20
2018-08-17T16:49:43.643Z,1.70
2018-08-17T16:52:12.821Z,1.92
2018-08-17T16:54:41.628Z,1.80
2018-08-17T16:57:10.559Z,2.00
2018-08-17T16:59:39.269Z,1.70
2018-08-17T17:02:08.019Z,2.00
2018-08-17T17:04:39.555Z,2.10
2018-08-17T17:07:08.826Z,1.98
2018-08-17T17:09:37.589Z,1.95
2018-08-17T17:12:13.926Z,2.08
2018-08-17T17:14:43.151Z,1.70
2018-08-17T17:17:11.939Z,1.67
2018-08-17T17:19:40.706Z,1.93
2018-08-17T17:22:09.794Z,1.80
2018-08-17T17:24:38.298Z,2.00
2018-08-17T17:27:07.404Z,1.77
2018-08-17T17:29:37.029Z,2.30
2018-08-17T17:32:06.382Z,2.10
2018-08-17T17:34:35.167Z,1.90
2018-08-17T17:37:04.039Z,1.90
2018-08-17T17:39:32.759Z,1.90
2018-08-17T17:42:01.750Z,2.17
2018-08-17T17:44:30.232Z,2.10
2018-08-17T17:46:59.196Z,1.97
2018-08-17T17:49:27.976Z,2.17
2018-08-17T17:51:56.655Z,2.10
2018-08-17T17:54:25.990Z,2.05
2018-08-17T17:57:00.771Z,1.83
2018-08-17T17:59:29.815Z,1.90
2018-08-17T18:01:58.672Z,2.20
2018-08-17T18:04:31.722Z,2.35
2018-08-17T18:07:00.924Z,2.60
2018-08-17T18:09:31.637Z,2.47
2018-08-17T18:12:00.740Z,2.33
2018-08-17T18:14:29.751Z,2.15
2018-08-17T18:16:58.823Z,2.45
2018-08-17T18:19:27.869Z,2.87
2018-08-17T18:21:56.847Z,2.58
2018-08-17T18:24:25.924Z,2.55
2018-08-17T18:26:54.653Z,2.43
2018-08-17T18:29:24.083Z,6.12
2018-08-17T18:31:52.855Z,3.33
2018-08-17T18:34:22.493Z,3.08
2018-08-17T18:36:51.831Z,2.87
2018-08-17T18:39:20.813Z,3.08
2018-08-17T18:41:49.999Z,2.98
2018-08-17T18:44:18.695Z,3.00
2018-08-17T18:46:47.449Z,2.70
2018-08-17T18:49:16.179Z,3.20
2018-08-17T18:51:44.878Z,3.33
2018-08-17T18:54:13.946Z,3.40
2018-08-17T18:56:42.631Z,4.17
2018-08-17T18:59:11.518Z,3.43
2018-08-17T22:03:33.064Z,3.60
2018-08-17T22:06:02.087Z,3.77
2018-08-17T22:08:30.524Z,3.37
2018-08-17T22:10:59.220Z,3.50
2018-08-17T22:13:33.282Z,3.67
2018-08-17T22:16:02.417Z,3.30
2018-08-17T22:18:31.526Z,3.60
2018-08-17T22:21:00.245Z,3.53
2018-08-17T22:23:29.798Z,3.00
2018-08-17T22:25:58.796Z,3.33
2018-08-17T22:28:27.279Z,3.40
2018-08-17T22:30:56.091Z,3.17
2018-08-17T22:33:24.590Z,3.20
2018-08-17T22:35:53.073Z,2.93
2018-08-17T22:38:21.906Z,3.20
2018-08-17T22:40:50.354Z,3.03
2018-08-17T22:43:19.004Z,3.20
2018-08-17T22:45:47.454Z,3.00
2018-08-17T22:48:16.317Z,3.23
2018-08-17T22:50:45.352Z,3.20
2018-08-17T22:53:14.073Z,2.67
2018-08-17T22:55:42.612Z,2.73
2018-08-17T22:58:11.343Z,2.97
2018-08-17T23:00:40.135Z,2.92
2018-08-17T23:03:09.128Z,2.50
2018-08-17T23:05:37.662Z,2.93
2018-08-17T23:08:06.174Z,3.30
2018-08-17T23:10:34.619Z,2.63
2018-08-17T23:13:03.103Z,3.23
2018-08-17T23:15:31.576Z,2.43
2018-08-17T23:18:01.284Z,2.70
2018-08-17T23:20:35.471Z,2.30
2018-08-17T23:23:05.205Z,2.80
2018-08-17T23:25:33.871Z,2.87
2018-08-17T23:28:02.543Z,2.33
2018-08-17T23:30:31.286Z,2.50
2018-08-17T23:32:59.694Z,2.53
2018-08-17T23:35:28.198Z,2.50
2018-08-17T23:37:56.630Z,2.53
2018-08-17T23:40:25.323Z,3.10
2018-08-17T23:42:54.033Z,2.60
2018-08-17T23:45:22.464Z,2.63
2018-08-17T23:47:51.143Z,2.63
2018-08-17T23:50:19.665Z,3.20
2018-08-17T23:52:48.307Z,3.30
2018-08-17T23:55:17.827Z,2.70
2018-08-17T23:57:46.389Z,2.37
